Time;durP1;ratioP1;P1;durP2;ratioP2;P2;SDS_P1;SDS_P2;PMS_P1;PMS_P2;Temp;Humidity;BMP_temperature;BMP_pressure;BME280_temperature;BME280_humidity;BME280_pressure;Samples;Min_cycle;Max_cycle;Signal;HPM_P1;HPM_P2
2022/03/05 00:00:35;;;;;;;10.77;9.00;;;0.10;99.90;;;;;;5075235;28;20075;-72
2022/03/05 00:03:01;;;;;;;12.90;9.02;;;0.10;99.90;;;;;;5069839;28;20215;-72
2022/03/05 00:05:27;;;;;;;12.70;8.70;;;0.10;99.90;;;;;;5072109;28;20041;-71
2022/03/05 00:07:53;;;;;;;13.68;10.23;;;0.00;99.90;;;;;;5078844;28;20044;-71
2022/03/05 00:10:19;;;;;;;16.63;10.02;;;0.00;99.90;;;;;;5069666;28;20076;-72
2022/03/05 00:12:49;;;;;;;13.20;9.60;;;0.00;99.90;;;;;;5073214;28;20036;-72
2022/03/05 00:15:14;;;;;;;13.75;9.80;;;0.00;99.90;;;;;;5072177;28;20050;-72
2022/03/05 00:17:40;;;;;;;11.32;9.52;;;-0.10;99.90;;;;;;5072621;28;20036;-72
2022/03/05 00:20:06;;;;;;;15.02;9.60;;;-0.20;99.90;;;;;;5072771;28;20032;-72
2022/03/05 00:22:32;;;;;;;13.35;9.73;;;-0.10;99.90;;;;;;5070025;28;20039;-72
2022/03/05 00:24:58;;;;;;;15.40;10.68;;;-0.10;99.90;;;;;;5068766;28;20040;-72
2022/03/05 00:27:24;;;;;;;12.52;8.73;;;-0.10;99.90;;;;;;5069206;28;20091;-72
2022/03/05 00:29:50;;;;;;;16.38;11.20;;;-0.20;99.90;;;;;;5071204;28;20044;-72
2022/03/05 00:32:16;;;;;;;16.65;10.65;;;-0.10;99.90;;;;;;5071026;28;20044;-72
2022/03/05 00:34:42;;;;;;;12.70;9.60;;;-0.20;99.90;;;;;;5086655;28;20040;-72
2022/03/05 00:37:08;;;;;;;15.98;10.55;;;-0.10;99.90;;;;;;5066877;28;20055;-72
2022/03/05 00:39:34;;;;;;;14.45;10.07;;;-0.20;99.90;;;;;;5069908;28;20045;-72
2022/03/05 00:42:00;;;;;;;18.45;10.27;;;-0.30;99.90;;;;;;5066005;28;20048;-72
2022/03/05 00:44:26;;;;;;;12.65;9.65;;;-0.30;99.90;;;;;;5068839;28;20036;-72
2022/03/05 00:46:51;;;;;;;15.95;11.05;;;-0.30;99.90;;;;;;5069054;28;20051;-72
2022/03/05 00:49:17;;;;;;;14.15;10.35;;;-0.30;99.90;;;;;;5072542;28;20399;-72
2022/03/05 00:51:43;;;;;;;12.65;9.90;;;-0.40;99.90;;;;;;5067421;28;20140;-72
2022/03/05 00:54:08;;;;;;;13.95;10.57;;;0.00;99.90;;;;;;5070713;28;20776;-72
2022/03/05 00:56:34;;;;;;;15.90;10.32;;;-0.40;99.90;;;;;;5070271;28;20033;-72
2022/03/05 00:59:00;;;;;;;13.70;9.52;;;-0.20;99.90;;;;;;5066026;28;20051;-72
2022/03/05 01:01:26;;;;;;;18.50;11.15;;;-0.40;99.90;;;;;;5068966;28;20044;-72
2022/03/05 01:03:51;;;;;;;15.50;11.25;;;-0.40;99.90;;;;;;5097054;28;20148;-72
2022/03/05 01:06:17;;;;;;;11.63;9.70;;;-0.40;99.90;;;;;;5071728;28;20109;-72
2022/03/05 01:08:43;;;;;;;14.52;10.48;;;-0.30;99.90;;;;;;5100222;28;20044;-72
2022/03/05 01:11:08;;;;;;;14.82;10.00;;;-0.40;99.90;;;;;;5067407;28;20078;-72
2022/03/05 01:13:35;;;;;;;14.73;9.43;;;-0.40;99.90;;;;;;5066564;28;20037;-72
2022/03/05 01:16:01;;;;;;;16.10;10.45;;;-0.50;99.90;;;;;;5070251;28;20134;-72
2022/03/05 01:18:27;;;;;;;13.32;9.98;;;-0.60;99.90;;;;;;5065850;28;20055;-72
2022/03/05 01:20:52;;;;;;;13.88;9.40;;;-0.60;99.90;;;;;;5068855;28;20093;-72
2022/03/05 01:23:18;;;;;;;15.05;10.80;;;-0.60;99.90;;;;;;5069106;28;20416;-72
2022/03/05 01:25:44;;;;;;;16.23;9.60;;;-0.60;99.90;;;;;;5069011;28;20106;-72
2022/03/05 01:28:09;;;;;;;13.20;9.95;;;-0.60;99.90;;;;;;5088264;28;20039;-72
2022/03/05 01:30:35;;;;;;;15.23;11.23;;;-0.60;99.90;;;;;;5069022;28;20495;-72
2022/03/05 01:33:01;;;;;;;13.82;10.63;;;-0.60;99.90;;;;;;5064226;28;20158;-72
2022/03/05 01:35:27;;;;;;;13.70;10.35;;;-0.60;99.90;;;;;;5068760;28;20491;-72
2022/03/05 01:37:53;;;;;;;15.00;10.85;;;-0.60;99.90;;;;;;5065282;28;20064;-72
2022/03/05 01:40:18;;;;;;;14.13;10.10;;;-0.60;99.90;;;;;;5065739;28;20130;-72
2022/03/05 01:42:44;;;;;;;14.85;10.98;;;-0.70;99.90;;;;;;5068769;28;20039;-72
2022/03/05 01:45:11;;;;;;;13.98;10.23;;;-0.60;99.90;;;;;;5069643;28;20135;-72
2022/03/05 01:47:38;;;;;;;15.40;10.38;;;-0.70;99.90;;;;;;5065323;28;20074;-72
2022/03/05 01:50:03;;;;;;;15.00;10.43;;;-0.70;99.90;;;;;;5067506;28;20101;-72
2022/03/05 01:52:30;;;;;;;16.35;10.77;;;-0.70;99.90;;;;;;5070173;28;20482;-72
2022/03/05 01:54:55;;;;;;;16.42;10.52;;;-0.70;99.90;;;;;;5067071;28;20036;-72
2022/03/05 01:57:21;;;;;;;14.20;9.82;;;-0.80;99.90;;;;;;5068611;28;20051;-72
2022/03/05 01:59:48;;;;;;;13.25;9.25;;;-0.60;99.90;;;;;;5069123;28;20544;-72
2022/03/05 02:02:14;;;;;;;12.50;9.52;;;-0.80;99.90;;;;;;5064894;28;20161;-72
2022/03/05 02:04:40;;;;;;;14.30;10.02;;;-0.80;99.90;;;;;;5069415;28;20036;-72
2022/03/05 02:07:05;;;;;;;15.82;9.55;;;-0.50;99.90;;;;;;5067274;28;20552;-72
2022/03/05 02:09:31;;;;;;;13.93;9.43;;;-0.80;99.90;;;;;;5068759;28;20028;-72
2022/03/05 02:11:57;;;;;;;15.23;9.82;;;-0.80;99.90;;;;;;5069697;28;20040;-72
2022/03/05 02:14:22;;;;;;;11.68;8.40;;;-0.70;99.90;;;;;;5067937;28;20475;-72
2022/03/05 02:16:48;;;;;;;14.05;8.95;;;-0.70;99.90;;;;;;5066894;28;20054;-72
2022/03/05 02:19:14;;;;;;;14.13;8.82;;;-0.70;99.90;;;;;;5070619;28;20037;-72
2022/03/05 02:21:39;;;;;;;14.23;9.15;;;-0.70;99.90;;;;;;5070183;28;20043;-72
2022/03/05 02:24:05;;;;;;;11.02;8.15;;;-0.70;99.90;;;;;;5067526;28;20036;-72
2022/03/05 02:26:31;;;;;;;14.80;8.90;;;-0.80;99.90;;;;;;5066289;28;20162;-72
2022/03/05 02:28:57;;;;;;;13.02;8.50;;;-0.70;99.90;;;;;;5097123;28;20040;-72
2022/03/05 02:31:23;;;;;;;13.15;8.43;;;-0.80;99.90;;;;;;5068148;28;20829;-72
2022/03/05 02:33:52;;;;;;;14.65;8.93;;;-0.80;99.90;;;;;;5065438;28;20061;-72
2022/03/05 02:36:21;;;;;;;12.05;8.63;;;-0.70;99.90;;;;;;5068449;28;20440;-72
2022/03/05 02:38:47;;;;;;;11.43;8.60;;;-0.70;99.90;;;;;;5090083;28;20041;-72
2022/03/05 02:41:12;;;;;;;12.20;8.23;;;-0.60;99.90;;;;;;5066060;28;20051;-72
2022/03/05 02:43:38;;;;;;;13.55;8.00;;;-0.80;99.90;;;;;;5068863;28;20040;-71
2022/03/05 02:46:04;;;;;;;13.73;8.40;;;-0.80;99.90;;;;;;5066390;28;20033;-72
2022/03/05 02:48:29;;;;;;;10.73;7.53;;;-0.80;99.90;;;;;;5066192;28;20116;-72
2022/03/05 02:50:55;;;;;;;11.60;8.13;;;-0.80;99.90;;;;;;5068127;28;20051;-72
2022/03/05 02:53:21;;;;;;;12.38;7.68;;;-0.70;99.90;;;;;;5066053;28;20062;-72
2022/03/05 02:55:47;;;;;;;10.82;7.72;;;-0.70;99.90;;;;;;5071784;28;20036;-72
2022/03/05 02:58:13;;;;;;;11.65;7.35;;;-0.70;99.90;;;;;;5068198;28;20063;-71
2022/03/05 03:00:39;;;;;;;10.38;7.25;;;-0.70;99.90;;;;;;5068765;28;21503;-72
2022/03/05 03:03:04;;;;;;;12.48;7.75;;;-0.60;99.90;;;;;;5064682;28;20044;-72
2022/03/05 03:05:30;;;;;;;10.93;7.07;;;-0.60;99.90;;;;;;5065983;28;20044;-71
2022/03/05 03:07:56;;;;;;;10.25;7.15;;;-0.60;99.90;;;;;;5068006;28;20127;-72
2022/03/05 03:10:21;;;;;;;12.93;7.80;;;-0.60;99.90;;;;;;5067086;28;20205;-71
2022/03/05 03:12:47;;;;;;;10.57;6.85;;;-0.60;99.90;;;;;;5064856;28;20487;-71
2022/03/05 03:15:14;;;;;;;10.90;7.53;;;-0.20;99.90;;;;;;5066502;28;20032;-71
2022/03/05 03:17:46;;;;;;;12.77;7.78;;;-0.50;99.90;;;;;;5068820;28;20036;-71
2022/03/05 03:20:36;;;;;;;11.40;7.32;;;-0.50;99.90;;;;;;5066167;28;20044;-71
2022/03/05 03:23:02;;;;;;;11.38;7.50;;;-0.50;99.90;;;;;;5064076;28;20123;-72
2022/03/05 03:25:27;;;;;;;13.60;6.95;;;-0.50;99.90;;;;;;5067741;28;20115;-71
2022/03/05 03:27:53;;;;;;;15.07;8.20;;;-0.10;99.90;;;;;;5064750;28;20033;-72
2022/03/05 03:30:19;;;;;;;11.27;7.10;;;-0.50;99.90;;;;;;5066099;28;20048;-71
2022/03/05 03:32:45;;;;;;;10.07;7.38;;;-0.40;99.90;;;;;;5064493;28;20462;-71
2022/03/05 03:35:13;;;;;;;12.55;7.15;;;-0.40;99.90;;;;;;5068540;28;20387;-71
2022/03/05 03:37:40;;;;;;;22.42;7.20;;;-0.40;99.90;;;;;;5093154;28;20051;-72
2022/03/05 03:40:09;;;;;;;11.45;6.78;;;-0.40;99.90;;;;;;5063758;28;20135;-71
2022/03/05 03:42:34;;;;;;;14.35;8.57;;;-0.40;99.90;;;;;;5067794;28;20410;-72
2022/03/05 03:45:00;;;;;;;11.40;7.57;;;-0.50;99.90;;;;;;5066404;28;20044;-71
2022/03/05 03:47:26;;;;;;;13.77;7.75;;;-0.40;99.90;;;;;;5096243;28;20052;-71
2022/03/05 03:49:52;;;;;;;13.23;7.40;;;-0.50;99.90;;;;;;5069703;28;20037;-71
2022/03/05 03:52:19;;;;;;;11.63;7.50;;;-0.50;99.90;;;;;;5067926;28;20049;-72
2022/03/05 03:54:46;;;;;;;13.45;8.15;;;-0.50;99.90;;;;;;5066103;28;20120;-71
2022/03/05 03:57:12;;;;;;;13.75;8.45;;;-0.50;99.90;;;;;;5065869;28;20042;-71
2022/03/05 03:59:38;;;;;;;11.88;8.13;;;-0.50;99.90;;;;;;5084818;28;20037;-71
2022/03/05 04:02:04;;;;;;;11.73;8.20;;;-0.50;99.90;;;;;;5065886;28;20075;-71
2022/03/05 04:04:30;;;;;;;13.27;8.00;;;-0.70;99.90;;;;;;5066236;28;20040;-71
2022/03/05 04:09:40;;;;;;;11.50;7.43;;;-0.60;99.90;;;;;;5067779;28;20052;-72
2022/03/05 04:12:07;;;;;;;11.32;7.95;;;-0.60;99.90;;;;;;5063811;28;20497;-71
2022/03/05 04:14:32;;;;;;;12.50;8.13;;;-0.60;99.90;;;;;;5095701;28;20547;-71
2022/03/05 04:16:58;;;;;;;16.23;8.25;;;-0.70;99.90;;;;;;5066488;28;20120;-71
2022/03/05 04:19:23;;;;;;;14.27;7.90;;;-0.70;99.90;;;;;;5067350;28;20468;-71
2022/03/05 04:21:49;;;;;;;12.75;8.48;;;-0.70;99.90;;;;;;5065953;28;20036;-72
2022/03/05 04:24:15;;;;;;;14.05;9.65;;;-0.70;99.90;;;;;;5066880;28;20406;-71
2022/03/05 04:26:40;;;;;;;16.02;7.70;;;-0.80;99.90;;;;;;5066751;28;20064;-71
2022/03/05 04:29:06;;;;;;;14.55;9.07;;;-0.80;99.90;;;;;;5068552;28;20107;-71
2022/03/05 04:31:32;;;;;;;13.85;8.65;;;-0.70;99.90;;;;;;5084947;28;20043;-71
2022/03/05 04:33:58;;;;;;;13.10;8.57;;;-0.80;99.90;;;;;;5069845;28;21476;-72
2022/03/05 04:36:23;;;;;;;14.48;8.20;;;-0.80;99.90;;;;;;5071556;28;20044;-71
2022/03/05 04:38:49;;;;;;;15.05;8.68;;;-0.80;99.90;;;;;;5072294;28;20082;-72
2022/03/05 04:41:15;;;;;;;11.50;7.20;;;-0.80;99.90;;;;;;5072558;28;20032;-71
2022/03/05 04:43:41;;;;;;;12.88;8.65;;;-0.80;99.90;;;;;;5072308;28;20075;-71
2022/03/05 04:46:07;;;;;;;13.55;7.85;;;-0.90;99.90;;;;;;5067693;28;20072;-72
2022/03/05 04:48:32;;;;;;;14.65;7.47;;;-0.80;99.90;;;;;;5071188;28;20049;-72
2022/03/05 04:50:58;;;;;;;14.98;8.50;;;-0.80;99.90;;;;;;5067430;28;20109;-71
2022/03/05 04:53:23;;;;;;;11.57;7.63;;;-0.80;99.90;;;;;;5070037;28;20037;-71
2022/03/05 04:55:49;;;;;;;13.88;8.45;;;-0.80;99.90;;;;;;5070960;28;20051;-71
2022/03/05 04:58:16;;;;;;;14.60;8.02;;;-0.80;99.90;;;;;;5072208;28;20075;-71
2022/03/05 05:00:41;;;;;;;15.43;7.82;;;-0.80;99.90;;;;;;5069116;28;20043;-71
2022/03/05 05:03:07;;;;;;;14.98;7.90;;;-0.70;99.90;;;;;;5067128;28;20044;-71
2022/03/05 05:05:33;;;;;;;11.55;7.80;;;-0.80;99.90;;;;;;5070582;28;20135;-71
2022/03/05 05:07:59;;;;;;;13.55;8.02;;;-0.80;99.90;;;;;;5066162;28;20155;-71
2022/03/05 05:10:24;;;;;;;13.07;7.88;;;-0.80;99.90;;;;;;5067016;28;20488;-71
2022/03/05 05:12:50;;;;;;;12.85;7.65;;;-0.70;99.90;;;;;;5068502;28;20029;-71
2022/03/05 05:15:16;;;;;;;12.75;8.57;;;-0.90;99.90;;;;;;5066708;28;20028;-72
2022/03/05 05:17:41;;;;;;;12.77;8.10;;;-0.90;99.90;;;;;;5069217;28;20072;-71
2022/03/05 05:20:08;;;;;;;11.95;7.70;;;-0.90;99.90;;;;;;5071700;28;20062;-71
2022/03/05 05:22:34;;;;;;;12.32;7.28;;;-1.00;99.90;;;;;;5068768;28;20431;-71
2022/03/05 05:25:00;;;;;;;14.13;8.95;;;-1.00;99.90;;;;;;5068895;28;20048;-71
2022/03/05 05:27:26;;;;;;;14.52;8.45;;;-0.90;99.90;;;;;;5070767;28;20102;-71
2022/03/05 05:29:52;;;;;;;14.60;7.43;;;-1.10;99.90;;;;;;5068955;28;20101;-72
2022/03/05 05:32:18;;;;;;;13.50;8.40;;;-1.10;99.90;;;;;;5069491;28;20045;-71
2022/03/05 05:34:44;;;;;;;13.00;8.52;;;-1.10;99.90;;;;;;5067218;28;20036;-72
2022/03/05 05:37:10;;;;;;;14.98;9.05;;;-1.10;99.90;;;;;;5067944;28;20032;-71
2022/03/05 05:39:36;;;;;;;11.25;7.32;;;-1.10;99.90;;;;;;5101716;28;20041;-71
2022/03/05 05:42:03;;;;;;;12.80;8.40;;;-1.10;99.90;;;;;;5103356;28;20048;-71
2022/03/05 05:44:28;;;;;;;13.20;7.93;;;-1.20;99.90;;;;;;5069725;28;20083;-72
2022/03/05 05:46:54;;;;;;;15.43;8.90;;;-1.00;99.90;;;;;;5069257;28;20071;-72
2022/03/05 05:49:20;;;;;;;14.57;8.48;;;-1.10;99.90;;;;;;5069875;28;20057;-71
2022/03/05 05:51:46;;;;;;;14.15;9.13;;;-1.10;99.90;;;;;;5071372;28;20704;-71
2022/03/05 05:54:11;;;;;;;15.70;7.85;;;-1.00;99.90;;;;;;5068979;28;20125;-71
2022/03/05 05:56:37;;;;;;;13.57;7.63;;;-1.00;99.90;;;;;;5071793;28;20044;-71
2022/03/05 05:59:04;;;;;;;15.18;8.23;;;-1.00;99.90;;;;;;5068971;28;20476;-71
2022/03/05 06:01:30;;;;;;;12.75;7.88;;;-0.80;99.90;;;;;;5066637;28;20040;-71
2022/03/05 06:03:56;;;;;;;10.45;6.50;;;-0.90;99.90;;;;;;5068903;28;20094;-71
2022/03/05 06:06:22;;;;;;;13.40;8.23;;;-0.90;99.90;;;;;;5067051;28;20418;-71
2022/03/05 06:08:48;;;;;;;11.50;7.53;;;-0.80;99.90;;;;;;5067319;28;20117;-71
2022/03/05 06:11:14;;;;;;;16.58;9.20;;;-0.90;99.90;;;;;;5069351;28;20151;-71
2022/03/05 06:13:40;;;;;;;12.10;7.05;;;-0.90;99.90;;;;;;5068515;28;20135;-71
2022/03/05 06:16:06;;;;;;;11.50;7.03;;;-0.90;99.90;;;;;;5066659;28;20048;-71
2022/03/05 06:18:32;;;;;;;13.38;7.30;;;-1.00;99.90;;;;;;5066133;28;20055;-72
2022/03/05 06:20:58;;;;;;;11.23;7.32;;;-1.00;99.90;;;;;;5070314;28;20070;-71
2022/03/05 06:23:24;;;;;;;10.90;6.95;;;-0.80;99.90;;;;;;5066759;28;20533;-71
2022/03/05 06:25:51;;;;;;;12.93;7.72;;;-0.90;99.90;;;;;;5064363;28;20033;-71
2022/03/05 06:28:17;;;;;;;9.88;6.72;;;-1.00;99.90;;;;;;5066515;28;20048;-71
2022/03/05 06:30:42;;;;;;;12.68;7.47;;;-1.00;99.90;;;;;;5067193;28;20558;-71
2022/03/05 06:33:08;;;;;;;9.77;6.38;;;-1.10;99.90;;;;;;5065377;28;20036;-71
2022/03/05 06:35:34;;;;;;;10.13;6.72;;;-1.00;99.90;;;;;;5067674;28;20114;-71
2022/03/05 06:37:59;;;;;;;12.20;7.50;;;-0.90;99.90;;;;;;5049667;28;20060;-71
2022/03/05 06:40:25;;;;;;;10.63;7.20;;;-0.80;99.90;;;;;;5067470;28;20083;-71
2022/03/05 06:42:51;;;;;;;12.00;7.32;;;-0.60;99.90;;;;;;5067236;28;20040;-72
2022/03/05 06:45:16;;;;;;;12.77;6.93;;;-0.40;99.90;;;;;;5067000;28;20073;-71
2022/03/05 06:47:42;;;;;;;9.50;6.20;;;-0.30;99.90;;;;;;5066526;28;20086;-71
2022/03/05 06:50:10;;;;;;;10.23;6.22;;;-0.10;99.90;;;;;;5069207;28;20506;-71
2022/03/05 06:52:36;;;;;;;13.73;6.55;;;0.00;99.90;;;;;;5066523;28;20188;-72
2022/03/05 06:55:03;;;;;;;12.38;6.70;;;0.20;99.90;;;;;;5095208;28;20044;-71
2022/03/05 06:57:29;;;;;;;10.30;5.75;;;0.70;99.90;;;;;;5065646;28;20067;-72
2022/03/05 06:59:55;;;;;;;8.23;5.63;;;1.00;99.90;;;;;;5064597;28;20479;-72
2022/03/05 07:02:21;;;;;;;7.85;5.82;;;1.30;99.90;;;;;;5065502;28;20387;-72
2022/03/05 07:04:47;;;;;;;8.65;5.20;;;1.50;99.90;;;;;;5067797;28;20528;-72
2022/03/05 07:07:13;;;;;;;9.15;5.45;;;1.70;99.90;;;;;;5066658;28;20166;-72
2022/03/05 07:09:39;;;;;;;11.68;6.32;;;1.70;99.90;;;;;;5062809;28;20075;-73
2022/03/05 07:12:06;;;;;;;11.85;6.28;;;1.70;99.90;;;;;;5067175;28;20041;-72
2022/03/05 07:14:32;;;;;;;12.57;6.53;;;1.60;99.90;;;;;;5067324;28;20399;-72
2022/03/05 07:16:57;;;;;;;8.80;6.05;;;1.50;99.90;;;;;;5066451;28;20048;-72
2022/03/05 07:19:23;;;;;;;10.02;6.00;;;1.50;99.90;;;;;;5067283;28;20032;-73
2022/03/05 07:21:49;;;;;;;11.48;6.63;;;1.30;99.90;;;;;;5058241;28;20044;-72
2022/03/05 07:24:16;;;;;;;11.05;6.60;;;1.20;99.90;;;;;;5066743;28;20055;-72
2022/03/05 07:26:41;;;;;;;11.80;7.45;;;1.10;99.90;;;;;;5066372;28;20044;-72
2022/03/05 07:29:07;;;;;;;15.48;6.75;;;1.10;99.90;;;;;;5064037;28;20040;-73
2022/03/05 07:31:33;;;;;;;13.27;6.93;;;1.10;99.90;;;;;;5065524;28;20075;-72
2022/03/05 07:33:59;;;;;;;13.27;7.28;;;1.10;99.90;;;;;;5061947;28;20036;-72
2022/03/05 07:36:25;;;;;;;9.20;7.20;;;1.00;99.90;;;;;;5064048;28;20048;-73
2022/03/05 07:38:51;;;;;;;12.65;7.30;;;1.00;99.90;;;;;;5063129;28;20052;-72
2022/03/05 07:41:18;;;;;;;12.70;7.43;;;1.00;99.90;;;;;;5063899;28;20041;-72
2022/03/05 07:43:44;;;;;;;12.88;7.82;;;1.00;99.90;;;;;;5066284;28;20055;-72
2022/03/05 07:46:10;;;;;;;12.98;8.30;;;1.00;99.90;;;;;;5065106;28;23598;-72
2022/03/05 07:48:36;;;;;;;13.80;7.50;;;1.10;99.90;;;;;;5065998;28;20048;-72
2022/03/05 07:51:02;;;;;;;12.38;8.48;;;1.10;99.90;;;;;;5094606;28;20043;-72
2022/03/05 07:53:31;;;;;;;12.55;8.50;;;1.10;99.90;;;;;;5065836;28;20032;-72
2022/03/05 07:55:57;;;;;;;12.07;7.32;;;1.00;99.90;;;;;;5065862;28;20032;-72
2022/03/05 07:58:22;;;;;;;11.55;7.75;;;1.20;99.90;;;;;;5066637;28;20028;-72
2022/03/05 08:00:48;;;;;;;15.63;8.43;;;1.20;99.90;;;;;;5067370;28;20525;-72
2022/03/05 08:03:14;;;;;;;12.60;7.90;;;1.30;99.90;;;;;;5065919;28;20047;-73
2022/03/05 08:05:41;;;;;;;13.60;7.65;;;1.30;99.90;;;;;;5062218;28;20048;-72
2022/03/05 08:08:07;;;;;;;12.60;8.13;;;1.40;99.90;;;;;;5069365;28;20040;-72
2022/03/05 08:10:33;;;;;;;14.40;8.73;;;1.40;99.90;;;;;;5073357;28;20032;-72
2022/03/05 08:12:58;;;;;;;12.20;8.32;;;1.40;99.90;;;;;;5068953;28;20209;-72
2022/03/05 08:15:24;;;;;;;14.23;9.38;;;1.40;99.90;;;;;;5069051;28;20036;-72
2022/03/05 08:17:56;;;;;;;12.52;7.70;;;1.50;99.90;;;;;;5067235;28;21658;-72
2022/03/05 08:20:24;;;;;;;13.63;8.35;;;1.50;99.90;;;;;;5070696;28;20040;-72
2022/03/05 08:22:50;;;;;;;12.73;9.35;;;1.60;99.90;;;;;;5071957;28;20040;-72
2022/03/05 08:25:16;;;;;;;13.80;9.00;;;1.60;99.90;;;;;;5071153;28;20044;-72
2022/03/05 08:27:42;;;;;;;13.70;9.45;;;1.60;99.90;;;;;;5074853;28;20040;-72
2022/03/05 08:30:09;;;;;;;13.40;8.75;;;1.70;99.90;;;;;;5071245;28;20631;-72
2022/03/05 08:32:35;;;;;;;16.52;9.48;;;1.70;99.90;;;;;;5070766;28;20050;-72
2022/03/05 08:35:01;;;;;;;14.27;10.15;;;1.80;99.90;;;;;;5068749;28;20047;-72
2022/03/05 08:37:27;;;;;;;17.88;10.00;;;1.80;99.90;;;;;;5065832;28;20090;-72
2022/03/05 08:39:54;;;;;;;16.20;10.32;;;1.80;99.90;;;;;;5068677;28;20037;-72
2022/03/05 08:42:20;;;;;;;12.63;9.48;;;1.80;99.90;;;;;;5070186;28;20455;-72
2022/03/05 08:44:46;;;;;;;16.98;11.48;;;1.90;99.90;;;;;;5069532;28;20066;-72
2022/03/05 08:47:11;;;;;;;18.00;10.85;;;1.90;99.90;;;;;;5063890;28;20820;-72
2022/03/05 08:49:37;;;;;;;17.70;10.10;;;2.10;99.90;;;;;;5068007;28;20089;-72
2022/03/05 08:52:04;;;;;;;16.05;10.93;;;2.10;99.90;;;;;;5068620;28;20444;-72
2022/03/05 08:54:30;;;;;;;14.63;10.18;;;2.10;99.90;;;;;;5069001;28;20061;-72
2022/03/05 08:56:55;;;;;;;14.95;10.40;;;2.10;99.90;;;;;;5066995;28;20115;-72
2022/03/05 08:59:21;;;;;;;19.50;11.13;;;2.10;99.90;;;;;;5069302;28;20409;-72
2022/03/05 09:01:47;;;;;;;16.58;10.35;;;2.30;99.90;;;;;;5069211;28;20488;-72
2022/03/05 09:04:13;;;;;;;16.95;11.57;;;2.30;99.90;;;;;;5067661;28;20067;-72
2022/03/05 09:06:38;;;;;;;15.93;10.75;;;2.30;99.90;;;;;;5068552;28;21612;-72
2022/03/05 09:09:05;;;;;;;18.38;11.20;;;2.30;99.90;;;;;;5070296;28;20043;-72
2022/03/05 09:11:31;;;;;;;16.60;11.00;;;2.40;99.90;;;;;;5070952;28;20056;-72
2022/03/05 09:13:57;;;;;;;16.50;10.85;;;2.50;99.90;;;;;;5070794;28;20043;-71
2022/03/05 09:16:23;;;;;;;17.13;11.50;;;2.60;99.90;;;;;;5065641;28;20037;-72
2022/03/05 09:18:49;;;;;;;18.92;10.98;;;2.70;99.90;;;;;;5066802;28;20040;-72
2022/03/05 09:21:15;;;;;;;17.70;11.43;;;2.70;99.90;;;;;;5053505;28;20059;-72
2022/03/05 09:23:41;;;;;;;19.00;12.48;;;2.80;99.90;;;;;;5089018;28;20103;-72
2022/03/05 09:26:06;;;;;;;17.90;11.77;;;2.70;99.90;;;;;;5066752;28;20071;-72
2022/03/05 09:28:32;;;;;;;17.63;11.43;;;2.80;99.90;;;;;;5069981;28;20036;-72
2022/03/05 09:30:58;;;;;;;19.23;12.18;;;2.80;99.90;;;;;;5068924;28;20101;-72
2022/03/05 09:33:25;;;;;;;17.50;12.00;;;2.80;99.90;;;;;;5069791;28;20036;-72
2022/03/05 09:35:51;;;;;;;18.95;12.25;;;2.80;99.90;;;;;;5069077;28;20123;-72
2022/03/05 09:38:18;;;;;;;20.88;12.57;;;2.80;99.90;;;;;;5068627;28;20043;-72
2022/03/05 09:40:44;;;;;;;20.00;13.10;;;2.80;99.90;;;;;;5072157;28;20376;-72
2022/03/05 09:43:09;;;;;;;18.15;11.23;;;2.80;99.90;;;;;;5072302;28;20097;-72
2022/03/05 09:45:36;;;;;;;18.05;12.60;;;2.90;99.90;;;;;;5068097;28;20115;-72
2022/03/05 09:48:01;;;;;;;20.38;13.10;;;3.20;99.90;;;;;;5096732;28;20062;-72
2022/03/05 09:50:29;;;;;;;20.20;13.35;;;3.10;99.90;;;;;;5064473;28;20135;-72
2022/03/05 09:52:56;;;;;;;19.42;12.77;;;3.10;99.90;;;;;;5070513;28;20135;-72
2022/03/05 09:55:22;;;;;;;21.63;12.75;;;3.30;99.90;;;;;;5068064;28;20120;-72
2022/03/05 09:57:47;;;;;;;21.60;12.20;;;3.30;99.90;;;;;;5068940;28;20130;-73
2022/03/05 10:00:13;;;;;;;19.02;11.90;;;3.30;99.90;;;;;;5066254;28;20093;-72
2022/03/05 10:02:40;;;;;;;18.58;13.05;;;3.30;99.90;;;;;;5075155;28;20040;-72
2022/03/05 10:05:28;;;;;;;18.70;12.93;;;3.40;99.90;;;;;;5068185;28;20079;-72
2022/03/05 10:08:15;;;;;;;21.58;14.15;;;3.50;99.90;;;;;;5069851;28;20044;-73
2022/03/05 10:10:48;;;;;;;18.35;11.60;;;3.60;99.90;;;;;;5067229;28;20653;-72
2022/03/05 10:13:31;;;;;;;22.13;12.15;;;3.70;99.90;;;;;;5051534;28;20036;-72
2022/03/05 10:15:59;;;;;;;19.65;13.65;;;3.70;99.90;;;;;;5065449;28;20047;-71
2022/03/05 10:18:31;;;;;;;20.25;12.88;;;3.70;99.90;;;;;;5085048;28;20502;-72
2022/03/05 10:20:59;;;;;;;21.02;14.15;;;3.90;99.90;;;;;;5093728;28;20040;-72
2022/03/05 10:23:25;;;;;;;20.27;13.02;;;3.70;99.90;;;;;;5098397;28;20033;-72
2022/03/05 10:25:55;;;;;;;22.27;14.45;;;3.90;99.90;;;;;;5067900;28;20039;-72
2022/03/05 10:28:25;;;;;;;20.75;13.25;;;3.90;99.90;;;;;;5066941;28;20090;-73
2022/03/05 10:31:03;;;;;;;21.02;13.10;;;3.90;99.90;;;;;;5066978;28;20064;-72
2022/03/05 10:33:31;;;;;;;18.88;12.75;;;3.90;99.90;;;;;;5068144;28;20075;-73
2022/03/05 10:36:21;;;;;;;19.35;13.40;;;4.00;99.90;;;;;;5067503;28;20052;-73
2022/03/05 10:38:46;;;;;;;20.35;14.23;;;4.20;99.90;;;;;;5063771;28;20032;-73
2022/03/05 10:41:17;;;;;;;18.83;13.27;;;4.30;99.90;;;;;;5069660;28;20127;-73
2022/03/05 10:43:44;;;;;;;22.33;14.18;;;4.30;99.90;;;;;;5097434;28;20534;-73
2022/03/05 10:46:10;;;;;;;19.52;14.05;;;4.50;99.90;;;;;;5067492;28;20135;-72
2022/03/05 10:48:42;;;;;;;20.27;14.52;;;4.50;99.90;;;;;;5072261;28;20032;-73
2022/03/05 10:51:14;;;;;;;18.90;13.32;;;4.60;99.90;;;;;;5092455;28;20049;-72
2022/03/05 10:53:46;;;;;;;21.08;13.55;;;4.60;99.90;;;;;;5065339;28;20044;-72
2022/03/05 10:56:33;;;;;;;22.88;14.30;;;4.60;99.90;;;;;;5066365;28;20037;-72
2022/03/05 10:59:10;;;;;;;20.35;13.30;;;4.60;99.90;;;;;;5067812;28;20481;-72
2022/03/05 11:01:39;;;;;;;20.90;13.98;;;4.80;99.90;;;;;;5048934;28;20170;-73
2022/03/05 11:04:06;;;;;;;20.63;14.18;;;4.70;99.90;;;;;;5065563;28;20078;-72
2022/03/05 11:06:36;;;;;;;19.73;13.57;;;4.80;99.90;;;;;;5067206;28;20033;-73
2022/03/05 11:09:02;;;;;;;23.10;14.65;;;4.80;99.90;;;;;;5068746;28;20055;-73
2022/03/05 11:11:28;;;;;;;21.70;14.65;;;4.90;99.90;;;;;;5067516;28;20044;-72
2022/03/05 11:13:54;;;;;;;20.52;14.25;;;5.00;99.90;;;;;;5049806;28;20194;-73
2022/03/05 11:16:21;;;;;;;21.10;14.60;;;5.00;99.90;;;;;;5065255;28;20458;-73
2022/03/05 11:18:47;;;;;;;21.75;14.35;;;4.90;99.90;;;;;;5066813;28;20498;-73
2022/03/05 11:21:13;;;;;;;23.45;14.32;;;5.10;99.90;;;;;;5068992;28;20040;-70
2022/03/05 11:23:41;;;;;;;20.73;14.40;;;5.00;99.90;;;;;;5067584;28;20041;-70
2022/03/05 11:26:08;;;;;;;23.58;15.05;;;5.10;99.90;;;;;;5068436;28;20119;-71
2022/03/05 11:28:43;;;;;;;20.48;13.90;;;5.10;99.90;;;;;;5069748;28;20047;-70
2022/03/05 11:31:22;;;;;;;23.23;14.38;;;5.20;99.90;;;;;;5065097;28;20043;-70
2022/03/05 11:33:49;;;;;;;21.20;15.38;;;5.30;99.90;;;;;;5071021;28;20113;-70
2022/03/05 11:36:33;;;;;;;20.15;14.15;;;5.30;99.90;;;;;;5067231;28;20586;-70
2022/03/05 11:39:08;;;;;;;25.65;16.23;;;5.30;99.90;;;;;;5066276;28;20048;-70
2022/03/05 11:41:47;;;;;;;20.92;13.80;;;5.40;99.90;;;;;;5065062;28;20690;-70
2022/03/05 11:44:14;;;;;;;20.42;13.93;;;5.40;99.90;;;;;;5067670;28;20044;-70
2022/03/05 11:46:40;;;;;;;24.60;15.00;;;5.50;99.90;;;;;;5073374;28;20047;-70
2022/03/05 11:49:12;;;;;;;20.63;14.38;;;5.50;99.90;;;;;;5072240;28;20048;-71
2022/03/05 11:51:53;;;;;;;21.10;14.35;;;5.60;99.90;;;;;;5075250;28;20068;-70
2022/03/05 11:54:19;;;;;;;21.48;14.82;;;5.70;99.90;;;;;;5072052;28;20037;-70
2022/03/05 11:57:08;;;;;;;24.50;14.98;;;5.70;99.90;;;;;;5051288;28;20063;-71
2022/03/05 11:59:38;;;;;;;21.90;14.40;;;5.80;98.30;;;;;;5099459;27;20078;-71
2022/03/05 12:02:04;;;;;;;21.35;14.32;;;5.80;97.30;;;;;;5068706;28;20062;-70
2022/03/05 12:04:31;;;;;;;20.60;13.85;;;5.80;97.50;;;;;;5071205;28;20403;-70
2022/03/05 12:07:12;;;;;;;21.20;15.30;;;5.70;97.70;;;;;;5071367;28;21395;-70
2022/03/05 12:09:53;;;;;;;21.05;15.07;;;5.70;97.20;;;;;;5070789;28;20040;-70
2022/03/05 12:12:21;;;;;;;23.40;15.38;;;5.70;96.70;;;;;;5071318;28;20044;-70
2022/03/05 12:14:55;;;;;;;21.95;15.80;;;5.80;97.40;;;;;;5071064;28;20032;-70
2022/03/05 12:17:25;;;;;;;21.48;14.65;;;5.90;97.40;;;;;;5070439;28;20036;-70
2022/03/05 12:19:51;;;;;;;19.63;13.90;;;5.90;98.90;;;;;;5069592;28;20597;-70
2022/03/05 12:22:17;;;;;;;21.15;14.88;;;5.80;96.40;;;;;;5070713;28;20139;-70
2022/03/05 12:24:43;;;;;;;21.50;13.85;;;5.80;96.40;;;;;;5069738;28;20131;-70
2022/03/05 12:27:17;;;;;;;20.45;15.10;;;6.20;98.00;;;;;;5085544;28;20076;-70
2022/03/05 12:29:50;;;;;;;22.95;15.40;;;6.40;97.20;;;;;;5068473;28;20402;-70
2022/03/05 12:32:17;;;;;;;21.05;15.18;;;6.60;97.20;;;;;;5067161;28;20113;-70
2022/03/05 12:34:43;;;;;;;22.67;14.07;;;6.40;94.50;;;;;;5069614;28;20044;-70
2022/03/05 12:37:10;;;;;;;19.40;13.75;;;6.30;94.50;;;;;;5069479;28;20127;-70
2022/03/05 12:39:45;;;;;;;26.58;15.60;;;6.50;95.10;;;;;;5065838;28;20082;-70